createdAt,value
2022-10-04T00:00:27.379Z,70.56
2022-10-04T00:03:06.831Z,70.75
2022-10-04T00:05:42.512Z,70.57
2022-10-04T00:08:27.764Z,70.75
2022-10-04T00:11:08.861Z,70.70
2022-10-04T00:13:50.353Z,70.68
2022-10-04T00:16:29.586Z,70.49
2022-10-04T00:19:20.978Z,70.91
2022-10-04T00:22:20.002Z,70.66
2022-10-04T00:25:18.818Z,70.29
2022-10-04T00:28:32.471Z,70.46
2022-10-04T00:31:15.624Z,70.50
2022-10-04T00:33:50.471Z,70.47
2022-10-04T00:36:56.762Z,70.76
2022-10-04T00:39:43.752Z,70.44
2022-10-04T00:42:37.588Z,71.12
2022-10-04T00:45:17.925Z,71.39
2022-10-04T00:48:11.671Z,71.19
2022-10-04T00:50:51.312Z,71.34
2022-10-04T00:53:42.357Z,71.16
2022-10-04T00:56:20.875Z,71.09
2022-10-04T00:59:15.074Z,71.43
2022-10-04T01:01:52.193Z,70.78
2022-10-04T01:04:38.066Z,71.16
2022-10-04T01:07:14.928Z,71.34
2022-10-04T01:09:54.391Z,71.20
2022-10-04T01:12:42.289Z,71.01
2022-10-04T01:15:20.162Z,71.15
2022-10-04T01:18:12.202Z,71.38
2022-10-04T01:20:56.154Z,71.16
2022-10-04T01:23:39.062Z,71.34
2022-10-04T01:26:41.129Z,71.19
2022-10-04T01:29:17.171Z,71.37
2022-10-04T01:31:52.439Z,71.45
2022-10-04T01:34:28.233Z,71.62
2022-10-04T01:37:01.948Z,71.62
2022-10-04T01:39:36.042Z,71.51
2022-10-04T01:42:12.058Z,71.09
2022-10-04T01:44:51.457Z,71.54
2022-10-04T01:47:32.582Z,71.60
2022-10-04T01:50:15.649Z,71.21
2022-10-04T01:52:52.965Z,71.44
2022-10-04T01:55:32.571Z,71.45
2022-10-04T01:58:12.772Z,71.64
2022-10-04T02:00:52.422Z,71.19
2022-10-04T02:03:33.063Z,71.45
2022-10-04T02:06:08.977Z,71.79
2022-10-04T02:08:49.440Z,71.64
2022-10-04T02:11:24.488Z,71.56
2022-10-04T02:13:58.133Z,71.76
2022-10-04T02:16:33.002Z,71.66
2022-10-04T02:19:06.357Z,71.67
2022-10-04T02:21:39.567Z,71.66
2022-10-04T02:24:13.297Z,71.49
2022-10-04T02:26:51.613Z,71.59
2022-10-04T02:29:24.781Z,71.77
2022-10-04T02:32:15.555Z,71.78
2022-10-04T02:34:48.926Z,71.71
2022-10-04T02:37:24.204Z,71.53
2022-10-04T02:40:05.827Z,71.80
2022-10-04T02:42:47.652Z,71.49
2022-10-04T02:45:26.087Z,71.78
2022-10-04T02:48:04.235Z,71.61
2022-10-04T02:50:46.367Z,71.53
2022-10-04T02:53:24.849Z,71.91
2022-10-04T02:55:58.741Z,71.57
2022-10-04T02:58:33.926Z,71.21
2022-10-04T03:01:07.657Z,71.65
2022-10-04T03:03:45.287Z,71.50
2022-10-04T03:06:20.914Z,71.46
2022-10-04T03:09:15.114Z,71.61
2022-10-04T03:11:50.556Z,71.71
2022-10-04T03:14:27.689Z,71.56
2022-10-04T03:17:04.249Z,71.47
2022-10-04T03:19:38.579Z,71.56
2022-10-04T03:22:12.728Z,71.55
2022-10-04T03:24:48.256Z,71.38
2022-10-04T03:27:24.963Z,71.20
2022-10-04T03:30:00.143Z,71.36
2022-10-04T03:32:34.289Z,71.33
2022-10-04T03:35:14.095Z,71.33
2022-10-04T03:37:47.748Z,71.57
2022-10-04T03:40:26.000Z,70.93
2022-10-04T03:43:01.618Z,71.35
2022-10-04T03:45:36.063Z,71.44
2022-10-04T03:48:14.104Z,71.44
2022-10-04T03:50:48.962Z,71.48
2022-10-04T03:53:30.196Z,71.32
2022-10-04T03:56:09.995Z,71.06
2022-10-04T03:58:43.689Z,71.12
2022-10-04T04:01:28.700Z,71.55
2022-10-04T04:04:06.111Z,71.38
2022-10-04T04:06:44.070Z,71.43
2022-10-04T04:09:23.273Z,71.85
2022-10-04T04:11:58.626Z,71.65
2022-10-04T04:14:31.619Z,71.45
2022-10-04T04:17:20.004Z,71.38
2022-10-04T04:19:54.447Z,71.65
2022-10-04T04:22:31.310Z,71.51
2022-10-04T04:25:08.297Z,71.81
2022-10-04T04:27:44.782Z,71.76
2022-10-04T04:30:19.283Z,71.76
2022-10-04T04:32:57.564Z,71.45
2022-10-04T04:35:33.405Z,71.54
2022-10-04T04:38:15.219Z,71.47
2022-10-04T04:40:57.571Z,71.70
2022-10-04T04:43:30.955Z,71.17
2022-10-04T04:46:26.029Z,71.60
2022-10-04T04:49:02.401Z,71.53
2022-10-04T04:51:35.145Z,71.44
2022-10-04T04:54:08.744Z,71.33
2022-10-04T04:56:44.015Z,71.40
2022-10-04T04:59:17.928Z,71.54
2022-10-04T05:01:51.565Z,71.30
2022-10-04T05:04:26.239Z,71.30
2022-10-04T05:07:10.539Z,71.72
2022-10-04T05:09:43.508Z,71.15
2022-10-04T05:12:21.266Z,71.22
2022-10-04T05:14:55.454Z,71.54
2022-10-04T05:17:35.186Z,71.52
2022-10-04T05:20:16.559Z,71.50
2022-10-04T05:22:51.428Z,71.47
2022-10-04T05:25:29.312Z,71.32
2022-10-04T05:28:03.042Z,71.09
2022-10-04T05:31:02.456Z,71.05
2022-10-04T05:33:40.579Z,71.58
2022-10-04T05:36:46.144Z,71.47
2022-10-04T05:39:27.846Z,71.44
2022-10-04T05:42:07.848Z,71.50
2022-10-04T05:44:47.776Z,71.65
2022-10-04T05:47:26.553Z,71.60
2022-10-04T05:50:01.156Z,71.64
2022-10-04T05:52:38.436Z,71.81
2022-10-04T05:55:23.237Z,71.62
2022-10-04T05:58:19.281Z,71.36
2022-10-04T06:01:13.083Z,71.71
2022-10-04T06:04:02.836Z,71.46
2022-10-04T06:06:41.329Z,71.55
2022-10-04T06:09:32.263Z,71.55
2022-10-04T06:12:13.334Z,71.57
2022-10-04T06:15:03.585Z,71.62
2022-10-04T06:18:15.177Z,71.62
2022-10-04T06:21:00.197Z,71.39
2022-10-04T06:23:37.595Z,71.55
2022-10-04T06:26:14.996Z,71.38
2022-10-04T06:28:52.201Z,71.61
2022-10-04T06:31:55.385Z,71.51
2022-10-04T06:34:53.688Z,71.45
2022-10-04T06:37:44.020Z,71.27
2022-10-04T06:40:37.021Z,71.60
2022-10-04T06:43:31.510Z,71.53
2022-10-04T06:46:19.880Z,71.56
2022-10-04T06:49:17.277Z,71.63
2022-10-04T06:52:07.249Z,71.74
2022-10-04T06:54:55.306Z,71.43
2022-10-04T06:57:46.523Z,71.49
2022-10-04T07:00:25.499Z,71.50
2022-10-04T07:03:03.659Z,71.52
2022-10-04T07:05:43.566Z,71.62
2022-10-04T07:08:31.499Z,71.31
2022-10-04T07:11:13.603Z,71.37
2022-10-04T07:13:56.773Z,71.29
2022-10-04T07:16:41.153Z,71.16
2022-10-04T07:19:43.527Z,71.57
2022-10-04T07:22:22.654Z,71.38
2022-10-04T07:25:08.267Z,71.25
2022-10-04T07:27:49.189Z,71.27
2022-10-04T07:30:21.293Z,71.01
2022-10-04T07:32:58.256Z,71.18
2022-10-04T07:35:36.209Z,71.39
2022-10-04T07:38:17.030Z,71.12
2022-10-04T07:41:04.779Z,70.81
2022-10-04T07:43:48.087Z,70.95
2022-10-04T07:46:28.887Z,71.16
2022-10-04T07:49:03.156Z,69.67
2022-10-04T07:51:44.887Z,70.63
2022-10-04T07:54:22.149Z,70.50
2022-10-04T07:56:58.397Z,69.90
2022-10-04T07:59:42.078Z,70.46
2022-10-04T08:02:28.882Z,69.28
2022-10-04T08:05:20.897Z,69.18
2022-10-04T08:08:16.583Z,69.30
2022-10-04T08:10:57.709Z,69.58
2022-10-04T08:13:39.173Z,70.08
2022-10-04T08:16:20.302Z,69.96
2022-10-04T08:19:07.185Z,70.33
2022-10-04T08:21:53.619Z,69.52
2022-10-04T08:24:34.705Z,69.83
2022-10-04T08:27:34.688Z,69.48
2022-10-04T08:30:13.099Z,70.85
2022-10-04T08:33:10.850Z,69.41
2022-10-04T08:35:56.881Z,69.78
2022-10-04T08:38:43.264Z,69.60
2022-10-04T08:41:44.903Z,68.76
2022-10-04T08:44:50.395Z,69.04
2022-10-04T08:47:55.007Z,69.00
2022-10-04T08:51:05.694Z,70.00
2022-10-04T08:54:20.873Z,69.34
2022-10-04T08:57:16.532Z,69.28
2022-10-04T09:00:05.802Z,70.81
2022-10-04T09:03:15.980Z,68.06
2022-10-04T09:05:57.846Z,69.69
2022-10-04T09:09:04.670Z,68.74
2022-10-04T09:12:03.669Z,70.78
2022-10-04T09:15:02.001Z,68.23
2022-10-04T09:17:46.835Z,68.45
2022-10-04T09:20:38.384Z,67.71
2022-10-04T09:23:25.272Z,69.34
2022-10-04T09:26:16.431Z,69.83
2022-10-04T09:29:32.046Z,68.20
2022-10-04T09:32:20.938Z,70.54
2022-10-04T09:35:14.975Z,70.48
2022-10-04T09:38:11.079Z,70.13
2022-10-04T09:41:03.860Z,70.09
2022-10-04T09:44:08.550Z,68.03
2022-10-04T09:46:56.696Z,68.55
2022-10-04T09:49:47.992Z,69.20
2022-10-04T09:52:42.252Z,66.78
2022-10-04T09:55:29.736Z,70.01
2022-10-04T09:58:28.843Z,69.20
2022-10-04T10:01:12.331Z,68.92
2022-10-04T10:04:06.845Z,65.67
2022-10-04T10:07:00.737Z,68.43
2022-10-04T10:09:59.374Z,69.44
2022-10-04T10:13:11.936Z,68.99
2022-10-04T10:15:59.510Z,68.60
2022-10-04T10:18:45.213Z,68.90
2022-10-04T10:21:43.056Z,68.72
2022-10-04T10:24:58.226Z,67.85
2022-10-04T10:27:48.983Z,70.74
2022-10-04T10:30:26.160Z,69.98
2022-10-04T10:33:20.429Z,68.06
2022-10-04T10:36:07.962Z,68.21
2022-10-04T10:39:00.646Z,67.79
2022-10-04T10:41:49.026Z,68.33
2022-10-04T10:44:34.617Z,67.48
2022-10-04T10:47:35.531Z,66.94
2022-10-04T10:50:25.774Z,66.03
2022-10-04T10:53:23.104Z,67.48
2022-10-04T10:56:47.950Z,67.14
2022-10-04T11:00:05.788Z,66.71
2022-10-04T11:03:14.326Z,68.75
2022-10-04T11:06:20.359Z,67.13
2022-10-04T11:09:23.413Z,67.13
2022-10-04T11:12:18.124Z,67.99
2022-10-04T11:15:22.124Z,68.73
2022-10-04T11:18:50.419Z,68.43
2022-10-04T11:21:56.008Z,68.08
2022-10-04T11:25:11.594Z,67.67
2022-10-04T11:27:57.415Z,67.57
2022-10-04T11:30:46.659Z,66.44
2022-10-04T11:33:55.841Z,67.54
2022-10-04T11:36:45.098Z,66.19
2022-10-04T11:39:47.060Z,68.50
2022-10-04T11:42:31.963Z,67.13
2022-10-04T11:45:34.026Z,67.72
2022-10-04T11:48:22.075Z,65.97
2022-10-04T11:51:21.569Z,66.18
2022-10-04T11:54:18.611Z,65.76
2022-10-04T11:57:20.577Z,64.86
2022-10-04T12:00:02.865Z,66.46
2022-10-04T12:03:02.692Z,66.12
2022-10-04T12:05:58.744Z,65.72
2022-10-04T12:08:43.991Z,64.20
2022-10-04T12:12:13.198Z,65.13
2022-10-04T12:15:04.428Z,63.86
2022-10-04T12:18:17.891Z,65.13
2022-10-04T12:21:11.828Z,64.98
2022-10-04T12:24:11.752Z,64.10
2022-10-04T12:27:02.840Z,63.16
2022-10-04T12:30:24.267Z,65.63
2022-10-04T12:33:11.261Z,64.05
2022-10-04T12:36:02.537Z,64.03
2022-10-04T12:38:50.786Z,63.90
2022-10-04T12:41:37.924Z,64.94
2022-10-04T12:44:29.300Z,64.49
2022-10-04T12:47:33.774Z,64.75
2022-10-04T12:50:18.694Z,65.90
2022-10-04T12:53:00.264Z,63.98
2022-10-04T12:56:00.668Z,65.07
2022-10-04T12:58:56.039Z,65.91
2022-10-04T13:01:37.703Z,65.38
2022-10-04T13:04:24.521Z,64.93
2022-10-04T13:07:21.270Z,64.73
2022-10-04T13:10:23.471Z,65.94
2022-10-04T13:13:25.246Z,65.69
2022-10-04T13:19:57.442Z,64.91
2022-10-04T13:22:56.443Z,65.30
2022-10-04T13:26:08.423Z,66.83
2022-10-04T13:28:50.783Z,64.54
2022-10-04T13:31:32.969Z,63.15
2022-10-04T13:34:21.178Z,65.15
2022-10-04T13:37:04.962Z,64.05
2022-10-04T13:40:07.985Z,65.02
2022-10-04T13:43:05.680Z,65.07
2022-10-04T13:45:48.604Z,67.52
2022-10-04T13:48:30.906Z,65.07
2022-10-04T13:51:20.313Z,63.78
2022-10-04T13:54:25.200Z,63.57
2022-10-04T13:57:13.270Z,65.08
2022-10-04T13:59:52.391Z,64.10
2022-10-04T14:03:03.753Z,65.47
2022-10-04T14:06:18.657Z,63.70
2022-10-04T14:09:24.796Z,64.01
2022-10-04T14:12:32.421Z,65.40
2022-10-04T14:15:31.552Z,64.83
2022-10-04T14:18:55.199Z,65.56
2022-10-04T14:22:04.744Z,65.03
2022-10-04T14:25:21.498Z,65.45
2022-10-04T14:28:20.430Z,65.55
2022-10-04T14:31:10.118Z,65.17
2022-10-04T14:34:25.440Z,64.86
2022-10-04T14:37:36.461Z,62.26
2022-10-04T14:40:34.923Z,60.14
2022-10-04T14:43:53.730Z,59.46
2022-10-04T14:46:40.427Z,59.16
2022-10-04T14:49:22.543Z,61.45
2022-10-04T14:52:18.257Z,62.23
2022-10-04T14:54:55.255Z,61.99
2022-10-04T14:57:52.558Z,61.72
2022-10-04T15:00:31.573Z,61.77
2022-10-04T15:03:28.885Z,62.45
2022-10-04T15:06:20.475Z,61.84
2022-10-04T15:09:14.936Z,62.66
2022-10-04T15:12:25.649Z,63.12
2022-10-04T15:15:17.374Z,62.79
2022-10-04T15:18:03.290Z,62.65
2022-10-04T15:20:51.321Z,62.66
2022-10-04T15:23:34.957Z,62.90
2022-10-04T15:26:39.211Z,63.25
2022-10-04T15:29:23.821Z,62.84
2022-10-04T15:32:07.662Z,63.16
2022-10-04T15:34:49.898Z,63.27
2022-10-04T15:37:34.731Z,63.80
2022-10-04T15:40:25.644Z,63.10
2022-10-04T15:43:07.396Z,63.34
2022-10-04T15:46:12.786Z,62.69
2022-10-04T15:49:00.159Z,62.53
2022-10-04T15:52:03.292Z,62.39
2022-10-04T15:55:09.858Z,62.35
2022-10-04T15:58:05.540Z,63.13
2022-10-04T16:00:49.386Z,62.70
2022-10-04T16:03:35.956Z,63.00
2022-10-04T16:06:18.096Z,63.22
2022-10-04T16:09:06.478Z,63.19
2022-10-04T16:11:55.271Z,63.38
2022-10-04T16:14:39.736Z,63.05
2022-10-04T16:17:38.481Z,63.15
2022-10-04T16:20:41.398Z,63.12
2022-10-04T16:23:27.893Z,62.91
2022-10-04T16:26:05.870Z,63.25
2022-10-04T16:28:59.755Z,63.25
2022-10-04T16:31:45.355Z,63.25
2022-10-04T16:34:48.565Z,62.97
2022-10-04T16:37:40.446Z,62.96
2022-10-04T16:40:32.010Z,62.53
2022-10-04T16:43:22.111Z,62.80
2022-10-04T16:46:18.300Z,62.61
2022-10-04T16:48:57.224Z,62.81
2022-10-04T16:52:12.346Z,62.44
2022-10-04T16:55:04.538Z,62.54
2022-10-04T16:57:39.061Z,62.85
2022-10-04T17:00:35.184Z,63.43
2022-10-04T17:03:18.711Z,62.97
2022-10-04T17:06:13.379Z,62.91
2022-10-04T17:09:03.214Z,62.98
2022-10-04T17:11:46.379Z,63.45
2022-10-04T17:14:33.701Z,63.38
2022-10-04T17:17:17.720Z,63.21
2022-10-04T17:19:55.489Z,63.32
2022-10-04T17:22:38.022Z,63.16
2022-10-04T17:25:21.435Z,63.27
2022-10-04T17:27:57.438Z,63.36
2022-10-04T17:30:42.943Z,63.25
2022-10-04T17:33:35.893Z,63.12
2022-10-04T17:36:31.750Z,63.41
2022-10-04T17:39:18.736Z,63.87
2022-10-04T17:42:02.159Z,64.54
2022-10-04T17:44:52.875Z,64.13
2022-10-04T17:47:54.693Z,64.17
2022-10-04T17:50:51.917Z,64.16
2022-10-04T17:53:47.788Z,64.54
2022-10-04T17:56:31.914Z,63.47
2022-10-04T17:59:12.438Z,63.49
2022-10-04T18:01:49.562Z,63.01
2022-10-04T18:04:26.189Z,63.43
2022-10-04T18:07:16.172Z,63.84
2022-10-04T18:09:52.578Z,64.96
2022-10-04T18:12:36.431Z,63.17
2022-10-04T18:18:44.854Z,61.85
2022-10-04T18:21:26.271Z,63.86
2022-10-04T18:24:03.455Z,64.22
2022-10-04T18:26:37.348Z,65.34
2022-10-04T18:29:16.121Z,62.04
2022-10-04T18:31:49.078Z,63.09
2022-10-04T18:34:29.730Z,63.38
2022-10-04T18:37:09.618Z,62.21
2022-10-04T18:39:55.338Z,62.47
2022-10-04T18:42:37.044Z,62.71
2022-10-04T18:45:21.305Z,62.98
2022-10-04T18:47:55.699Z,62.14
2022-10-04T18:50:43.506Z,61.94
2022-10-04T18:53:50.602Z,62.74
2022-10-04T18:56:25.431Z,62.95
2022-10-04T18:59:32.588Z,62.87
2022-10-04T19:02:14.909Z,62.77
2022-10-04T19:04:56.041Z,62.43
2022-10-04T19:07:38.863Z,62.66
2022-10-04T19:10:25.965Z,62.36
2022-10-04T19:13:11.629Z,62.31
2022-10-04T19:16:25.709Z,62.23
2022-10-04T19:19:15.250Z,62.76
2022-10-04T19:21:56.540Z,62.23
2022-10-04T19:24:58.315Z,61.67
2022-10-04T19:27:36.595Z,61.71
2022-10-04T19:30:23.410Z,62.69
2022-10-04T19:33:08.092Z,61.96
2022-10-04T19:35:56.747Z,62.01
2022-10-04T19:38:51.725Z,62.41
2022-10-04T19:41:37.871Z,61.98
2022-10-04T19:44:30.012Z,62.25
2022-10-04T19:47:18.131Z,61.87
2022-10-04T19:49:57.777Z,63.74
2022-10-04T19:52:38.941Z,61.52
2022-10-04T19:55:22.135Z,61.90
2022-10-04T19:58:03.497Z,61.40
2022-10-04T20:00:37.642Z,61.92
2022-10-04T20:03:23.455Z,61.38
2022-10-04T20:06:00.546Z,61.79
2022-10-04T20:08:59.379Z,61.74
2022-10-04T20:11:50.114Z,62.08
2022-10-04T20:14:50.962Z,61.91
2022-10-04T20:17:34.995Z,61.54
2022-10-04T20:20:09.623Z,61.15
2022-10-04T20:23:03.854Z,61.51
2022-10-04T20:26:04.044Z,61.56
2022-10-04T20:28:47.506Z,62.11
2022-10-04T20:31:55.735Z,61.66
2022-10-04T20:34:36.695Z,61.71
2022-10-04T20:37:11.097Z,61.82
2022-10-04T20:40:04.705Z,61.74
2022-10-04T20:42:39.140Z,61.97
2022-10-04T20:45:27.798Z,61.48
2022-10-04T20:48:01.343Z,61.30
2022-10-04T20:50:43.202Z,61.41
2022-10-04T20:53:22.480Z,61.67
2022-10-04T20:56:11.873Z,61.38
2022-10-04T20:58:44.970Z,60.79
2022-10-04T21:01:40.756Z,61.48
2022-10-04T21:04:15.434Z,61.07
2022-10-04T21:06:57.005Z,61.97
2022-10-04T21:09:32.995Z,61.81
2022-10-04T21:12:07.573Z,61.37
2022-10-04T21:14:40.470Z,61.30
2022-10-04T21:17:40.838Z,62.27
2022-10-04T21:20:15.938Z,61.33
2022-10-04T21:22:53.187Z,61.45
2022-10-04T21:25:34.763Z,61.61
2022-10-04T21:28:39.866Z,61.62
2022-10-04T21:31:12.703Z,61.29
2022-10-04T21:33:45.479Z,61.26
2022-10-04T21:36:18.433Z,61.33
2022-10-04T21:38:54.461Z,62.10
2022-10-04T21:41:28.582Z,61.49
2022-10-04T21:44:01.560Z,61.66
2022-10-04T21:46:34.374Z,62.48
2022-10-04T21:49:07.836Z,61.91
2022-10-04T21:51:41.314Z,62.26
2022-10-04T21:54:14.583Z,62.78
2022-10-04T21:56:49.088Z,62.65
2022-10-04T21:59:25.032Z,62.18
2022-10-04T22:01:58.054Z,62.55
2022-10-04T22:04:30.734Z,62.44
2022-10-04T22:07:03.663Z,62.16
2022-10-04T22:09:36.477Z,62.65
2022-10-04T22:12:10.698Z,62.66
2022-10-04T22:14:43.853Z,62.90
2022-10-04T22:17:16.702Z,62.88
2022-10-04T22:19:49.983Z,62.55
2022-10-04T22:22:23.345Z,62.47
2022-10-04T22:24:56.233Z,62.67
2022-10-04T22:27:31.980Z,62.82
2022-10-04T22:30:08.605Z,62.48
2022-10-04T22:32:41.531Z,62.42
2022-10-04T22:35:17.545Z,62.58
2022-10-04T22:37:51.319Z,62.38
2022-10-04T22:40:27.325Z,62.96
2022-10-04T22:43:04.288Z,62.85
2022-10-04T22:45:37.485Z,62.79
2022-10-04T22:48:16.356Z,62.87
2022-10-04T22:50:52.449Z,63.34
2022-10-04T22:53:28.911Z,62.96
2022-10-04T22:56:01.803Z,63.00
2022-10-04T22:58:36.006Z,62.82
2022-10-04T23:01:20.649Z,63.25
2022-10-04T23:03:54.216Z,63.08
2022-10-04T23:06:40.443Z,63.10
2022-10-04T23:09:13.683Z,62.74
2022-10-04T23:11:49.523Z,63.22
2022-10-04T23:14:35.667Z,62.65
2022-10-04T23:17:24.735Z,62.86
2022-10-04T23:19:59.801Z,62.89
2022-10-04T23:22:32.729Z,63.31
2022-10-04T23:25:13.461Z,63.20
2022-10-04T23:27:47.027Z,63.70
2022-10-04T23:30:23.409Z,63.72
2022-10-04T23:32:59.136Z,63.09
2022-10-04T23:35:39.938Z,62.99
2022-10-04T23:38:15.550Z,63.11
2022-10-04T23:40:48.279Z,63.00
2022-10-04T23:43:25.001Z,63.06
2022-10-04T23:45:59.552Z,63.38
2022-10-04T23:48:32.834Z,63.02
2022-10-04T23:51:05.777Z,63.44
2022-10-04T23:53:38.475Z,63.57
2022-10-04T23:56:21.935Z,63.42
2022-10-04T23:58:59.018Z,63.31
